Boston Corner, Indiana
Current Conditions -  °F | °C
As of 4:54 AM on Saturday 22 Nov 2014 (Local Time) from KFWA Reporting Station
Light Rain Light Rain  
Wind Chill: 25°   Ceiling: 2000
Heat Index: 33°   Visibility: 4mi
Dew Point: 29°   Wind: 10mph
Humidity: 85%   Direction: 200°SSW
Pressure: 30.19"   Gusts: NA
Location:  40.9863°N, 84.8797°W
Report Text: KFWA 220954Z COR 20009KT 4SM -RA BR FEW015 BKN020 OVC031 01/M02 A3019 RMK AO2 RAB08PLB03E22 SLP234 P0007 T00061017
Loading
Personal Weather Stations






























Interactive Weather Map New forecast layout! Learn more

10-Day Weather Forecast

Advertisements
Track Severe Weather on mobile